sensor_id;sensor_type;location;lat;lon;timestamp;temperature;humidity
4425;DHT22;2225;53.568;13.266;2023-07-31T00:00:05;19.80;88.40
4425;DHT22;2225;53.568;13.266;2023-07-31T00:02:32;19.80;88.40
4425;DHT22;2225;53.568;13.266;2023-07-31T00:05:00;19.70;88.40
4425;DHT22;2225;53.568;13.266;2023-07-31T00:07:27;19.70;88.40
4425;DHT22;2225;53.568;13.266;2023-07-31T00:09:54;19.70;88.50
4425;DHT22;2225;53.568;13.266;2023-07-31T00:12:23;19.60;88.50
4425;DHT22;2225;53.568;13.266;2023-07-31T00:14:50;19.60;88.50
4425;DHT22;2225;53.568;13.266;2023-07-31T00:17:17;19.60;88.70
4425;DHT22;2225;53.568;13.266;2023-07-31T00:19:44;19.60;88.60
4425;DHT22;2225;53.568;13.266;2023-07-31T00:22:12;19.60;88.70
4425;DHT22;2225;53.568;13.266;2023-07-31T00:24:39;19.60;88.90
4425;DHT22;2225;53.568;13.266;2023-07-31T00:27:06;19.60;89.00
4425;DHT22;2225;53.568;13.266;2023-07-31T00:29:33;19.60;89.70
4425;DHT22;2225;53.568;13.266;2023-07-31T00:32:00;19.60;88.90
4425;DHT22;2225;53.568;13.266;2023-07-31T00:34:27;19.60;88.70
4425;DHT22;2225;53.568;13.266;2023-07-31T00:36:55;19.60;88.80
4425;DHT22;2225;53.568;13.266;2023-07-31T00:39:22;19.60;89.10
4425;DHT22;2225;53.568;13.266;2023-07-31T00:41:49;19.60;89.20
4425;DHT22;2225;53.568;13.266;2023-07-31T00:44:16;19.60;89.40
4425;DHT22;2225;53.568;13.266;2023-07-31T00:46:44;19.60;89.60
4425;DHT22;2225;53.568;13.266;2023-07-31T00:49:11;19.60;89.90
4425;DHT22;2225;53.568;13.266;2023-07-31T00:51:38;19.60;90.20
4425;DHT22;2225;53.568;13.266;2023-07-31T00:54:06;19.60;90.30
4425;DHT22;2225;53.568;13.266;2023-07-31T00:56:33;19.60;90.30
4425;DHT22;2225;53.568;13.266;2023-07-31T00:59:00;19.60;90.40
4425;DHT22;2225;53.568;13.266;2023-07-31T01:01:27;19.60;90.40
4425;DHT22;2225;53.568;13.266;2023-07-31T01:03:55;19.60;90.60
4425;DHT22;2225;53.568;13.266;2023-07-31T01:06:35;19.60;90.70
4425;DHT22;2225;53.568;13.266;2023-07-31T01:09:17;19.60;90.90
4425;DHT22;2225;53.568;13.266;2023-07-31T01:12:04;19.60;90.90
4425;DHT22;2225;53.568;13.266;2023-07-31T01:14:33;19.60;90.80
4425;DHT22;2225;53.568;13.266;2023-07-31T01:17:00;19.60;90.90
4425;DHT22;2225;53.568;13.266;2023-07-31T01:19:28;19.60;91.00
4425;DHT22;2225;53.568;13.266;2023-07-31T01:22:41;19.60;91.30
4425;DHT22;2225;53.568;13.266;2023-07-31T01:25:47;19.60;91.30
4425;DHT22;2225;53.568;13.266;2023-07-31T01:31:14;19.70;91.30
4425;DHT22;2225;53.568;13.266;2023-07-31T01:33:45;19.60;91.20
4425;DHT22;2225;53.568;13.266;2023-07-31T01:36:12;19.60;91.10
4425;DHT22;2225;53.568;13.266;2023-07-31T01:38:40;19.60;91.10
4425;DHT22;2225;53.568;13.266;2023-07-31T01:41:08;19.60;91.00
4425;DHT22;2225;53.568;13.266;2023-07-31T01:43:35;19.70;91.00
4425;DHT22;2225;53.568;13.266;2023-07-31T01:46:01;19.60;91.20
4425;DHT22;2225;53.568;13.266;2023-07-31T01:48:28;19.60;91.20
4425;DHT22;2225;53.568;13.266;2023-07-31T01:50:55;19.60;91.20
4425;DHT22;2225;53.568;13.266;2023-07-31T01:53:22;19.60;91.40
4425;DHT22;2225;53.568;13.266;2023-07-31T01:55:49;19.60;91.40
4425;DHT22;2225;53.568;13.266;2023-07-31T01:58:16;19.60;91.40
4425;DHT22;2225;53.568;13.266;2023-07-31T02:00:43;19.60;91.60
4425;DHT22;2225;53.568;13.266;2023-07-31T02:03:10;19.60;91.70
4425;DHT22;2225;53.568;13.266;2023-07-31T02:05:47;19.60;91.80
4425;DHT22;2225;53.568;13.266;2023-07-31T02:08:15;19.60;92.10
4425;DHT22;2225;53.568;13.266;2023-07-31T02:10:43;19.50;91.90
4425;DHT22;2225;53.568;13.266;2023-07-31T02:13:10;19.50;91.90
4425;DHT22;2225;53.568;13.266;2023-07-31T02:15:37;19.50;92.30
4425;DHT22;2225;53.568;13.266;2023-07-31T02:18:04;19.50;92.10
4425;DHT22;2225;53.568;13.266;2023-07-31T02:20:34;19.50;92.10
4425;DHT22;2225;53.568;13.266;2023-07-31T02:23:02;19.50;92.00
4425;DHT22;2225;53.568;13.266;2023-07-31T02:25:29;19.50;92.30
4425;DHT22;2225;53.568;13.266;2023-07-31T02:27:56;19.50;91.90
4425;DHT22;2225;53.568;13.266;2023-07-31T02:30:23;19.60;91.90
4425;DHT22;2225;53.568;13.266;2023-07-31T02:32:50;19.60;91.90
4425;DHT22;2225;53.568;13.266;2023-07-31T02:35:17;19.50;91.80
4425;DHT22;2225;53.568;13.266;2023-07-31T02:37:45;19.60;91.80
4425;DHT22;2225;53.568;13.266;2023-07-31T02:40:13;19.60;91.80
4425;DHT22;2225;53.568;13.266;2023-07-31T02:42:40;19.60;91.80
4425;DHT22;2225;53.568;13.266;2023-07-31T02:45:07;19.60;92.10
4425;DHT22;2225;53.568;13.266;2023-07-31T02:47:34;19.60;91.90
4425;DHT22;2225;53.568;13.266;2023-07-31T02:50:05;19.60;92.00
4425;DHT22;2225;53.568;13.266;2023-07-31T02:52:32;19.60;92.00
4425;DHT22;2225;53.568;13.266;2023-07-31T02:54:59;19.60;92.00
4425;DHT22;2225;53.568;13.266;2023-07-31T02:57:26;19.50;92.00
4425;DHT22;2225;53.568;13.266;2023-07-31T02:59:53;19.50;92.10
4425;DHT22;2225;53.568;13.266;2023-07-31T03:02:20;19.50;92.20
4425;DHT22;2225;53.568;13.266;2023-07-31T03:04:48;19.50;92.10
4425;DHT22;2225;53.568;13.266;2023-07-31T03:07:15;19.50;92.20
4425;DHT22;2225;53.568;13.266;2023-07-31T03:09:42;19.60;92.30
4425;DHT22;2225;53.568;13.266;2023-07-31T03:12:09;19.50;92.20
4425;DHT22;2225;53.568;13.266;2023-07-31T03:14:36;19.60;92.30
4425;DHT22;2225;53.568;13.266;2023-07-31T03:17:03;19.60;92.30
4425;DHT22;2225;53.568;13.266;2023-07-31T03:19:31;19.60;92.30
4425;DHT22;2225;53.568;13.266;2023-07-31T03:21:59;19.60;92.50
4425;DHT22;2225;53.568;13.266;2023-07-31T03:24:28;19.60;92.60
4425;DHT22;2225;53.568;13.266;2023-07-31T03:26:55;19.60;92.70
4425;DHT22;2225;53.568;13.266;2023-07-31T03:29:22;19.60;92.70
4425;DHT22;2225;53.568;13.266;2023-07-31T03:31:51;19.60;92.90
4425;DHT22;2225;53.568;13.266;2023-07-31T03:34:18;19.60;92.90
4425;DHT22;2225;53.568;13.266;2023-07-31T03:36:45;19.60;93.00
4425;DHT22;2225;53.568;13.266;2023-07-31T03:39:12;19.60;92.90
4425;DHT22;2225;53.568;13.266;2023-07-31T03:41:39;19.70;93.00
4425;DHT22;2225;53.568;13.266;2023-07-31T03:44:06;19.70;92.90
4425;DHT22;2225;53.568;13.266;2023-07-31T03:46:34;19.70;93.00
4425;DHT22;2225;53.568;13.266;2023-07-31T03:49:03;19.80;93.20
4425;DHT22;2225;53.568;13.266;2023-07-31T03:51:30;19.80;93.30
4425;DHT22;2225;53.568;13.266;2023-07-31T03:53:57;19.80;93.30
4425;DHT22;2225;53.568;13.266;2023-07-31T03:56:24;19.80;93.30
4425;DHT22;2225;53.568;13.266;2023-07-31T03:58:51;19.80;93.30
4425;DHT22;2225;53.568;13.266;2023-07-31T04:01:19;19.80;93.40
4425;DHT22;2225;53.568;13.266;2023-07-31T04:03:46;19.90;93.30
4425;DHT22;2225;53.568;13.266;2023-07-31T04:06:13;19.90;93.40
4425;DHT22;2225;53.568;13.266;2023-07-31T04:08:44;19.90;93.30
4425;DHT22;2225;53.568;13.266;2023-07-31T04:11:14;20.00;93.30
4425;DHT22;2225;53.568;13.266;2023-07-31T04:13:41;20.00;93.20
4425;DHT22;2225;53.568;13.266;2023-07-31T04:16:08;20.10;93.20
4425;DHT22;2225;53.568;13.266;2023-07-31T04:18:35;20.10;93.10
4425;DHT22;2225;53.568;13.266;2023-07-31T04:21:02;20.20;93.10
4425;DHT22;2225;53.568;13.266;2023-07-31T04:23:29;20.20;93.00
4425;DHT22;2225;53.568;13.266;2023-07-31T04:25:56;20.30;93.00
4425;DHT22;2225;53.568;13.266;2023-07-31T04:28:23;20.30;92.90
4425;DHT22;2225;53.568;13.266;2023-07-31T04:30:52;20.40;92.80
4425;DHT22;2225;53.568;13.266;2023-07-31T04:33:20;20.50;92.70
4425;DHT22;2225;53.568;13.266;2023-07-31T04:35:51;20.50;92.70
4425;DHT22;2225;53.568;13.266;2023-07-31T04:38:20;20.50;92.60
4425;DHT22;2225;53.568;13.266;2023-07-31T04:40:47;20.60;92.70
4425;DHT22;2225;53.568;13.266;2023-07-31T04:43:14;20.70;92.70
4425;DHT22;2225;53.568;13.266;2023-07-31T04:45:47;20.70;92.60
4425;DHT22;2225;53.568;13.266;2023-07-31T04:48:15;20.70;92.50
4425;DHT22;2225;53.568;13.266;2023-07-31T04:50:42;20.80;92.40
4425;DHT22;2225;53.568;13.266;2023-07-31T04:53:09;20.80;92.30
4425;DHT22;2225;53.568;13.266;2023-07-31T04:55:36;20.80;92.20
4425;DHT22;2225;53.568;13.266;2023-07-31T04:58:03;20.80;92.20
4425;DHT22;2225;53.568;13.266;2023-07-31T05:00:30;20.90;92.20
4425;DHT22;2225;53.568;13.266;2023-07-31T05:02:57;20.90;92.20
4425;DHT22;2225;53.568;13.266;2023-07-31T05:05:24;20.90;92.10
4425;DHT22;2225;53.568;13.266;2023-07-31T05:07:51;21.00;92.10
4425;DHT22;2225;53.568;13.266;2023-07-31T05:10:18;20.90;92.00
4425;DHT22;2225;53.568;13.266;2023-07-31T05:12:45;20.90;91.90
4425;DHT22;2225;53.568;13.266;2023-07-31T05:15:11;20.90;91.80
4425;DHT22;2225;53.568;13.266;2023-07-31T05:17:38;20.90;91.90
4425;DHT22;2225;53.568;13.266;2023-07-31T05:20:06;20.90;92.10
4425;DHT22;2225;53.568;13.266;2023-07-31T05:22:33;20.90;92.10
4425;DHT22;2225;53.568;13.266;2023-07-31T05:25:00;20.90;92.20
4425;DHT22;2225;53.568;13.266;2023-07-31T05:27:27;21.00;92.30
4425;DHT22;2225;53.568;13.266;2023-07-31T05:29:54;21.00;92.10
4425;DHT22;2225;53.568;13.266;2023-07-31T05:32:21;21.10;91.90
4425;DHT22;2225;53.568;13.266;2023-07-31T05:34:53;21.20;91.80
4425;DHT22;2225;53.568;13.266;2023-07-31T05:37:20;21.20;91.70
4425;DHT22;2225;53.568;13.266;2023-07-31T05:39:48;21.30;91.40
4425;DHT22;2225;53.568;13.266;2023-07-31T05:42:15;21.30;91.30
4425;DHT22;2225;53.568;13.266;2023-07-31T05:44:42;21.30;91.30
4425;DHT22;2225;53.568;13.266;2023-07-31T05:47:10;21.30;91.30
4425;DHT22;2225;53.568;13.266;2023-07-31T05:49:37;21.30;91.10
4425;DHT22;2225;53.568;13.266;2023-07-31T05:52:04;21.40;91.30
4425;DHT22;2225;53.568;13.266;2023-07-31T05:54:32;21.40;91.30
4425;DHT22;2225;53.568;13.266;2023-07-31T05:56:59;21.40;91.10
4425;DHT22;2225;53.568;13.266;2023-07-31T05:59:26;21.40;91.10
4425;DHT22;2225;53.568;13.266;2023-07-31T06:01:53;21.40;91.10
4425;DHT22;2225;53.568;13.266;2023-07-31T06:04:20;21.40;91.20
4425;DHT22;2225;53.568;13.266;2023-07-31T06:06:51;21.40;91.40
4425;DHT22;2225;53.568;13.266;2023-07-31T06:09:18;21.40;91.10
4425;DHT22;2225;53.568;13.266;2023-07-31T06:11:46;21.40;91.00
4425;DHT22;2225;53.568;13.266;2023-07-31T06:14:13;21.50;91.10
4425;DHT22;2225;53.568;13.266;2023-07-31T06:16:41;21.50;90.90
4425;DHT22;2225;53.568;13.266;2023-07-31T06:19:08;21.60;90.90
4425;DHT22;2225;53.568;13.266;2023-07-31T06:21:35;21.60;90.60
4425;DHT22;2225;53.568;13.266;2023-07-31T06:24:05;21.60;90.60
4425;DHT22;2225;53.568;13.266;2023-07-31T06:26:32;21.70;90.70
4425;DHT22;2225;53.568;13.266;2023-07-31T06:28:59;21.70;90.80
4425;DHT22;2225;53.568;13.266;2023-07-31T06:31:26;21.70;90.80
4425;DHT22;2225;53.568;13.266;2023-07-31T06:33:53;21.80;90.70
4425;DHT22;2225;53.568;13.266;2023-07-31T06:36:20;21.80;90.60
4425;DHT22;2225;53.568;13.266;2023-07-31T06:38:47;21.90;90.60
4425;DHT22;2225;53.568;13.266;2023-07-31T06:41:14;21.90;90.70
4425;DHT22;2225;53.568;13.266;2023-07-31T06:43:41;22.00;90.80
4425;DHT22;2225;53.568;13.266;2023-07-31T06:46:08;22.10;90.80
4425;DHT22;2225;53.568;13.266;2023-07-31T06:48:36;22.10;90.50
4425;DHT22;2225;53.568;13.266;2023-07-31T06:51:04;22.20;90.30
4425;DHT22;2225;53.568;13.266;2023-07-31T06:53:31;22.20;90.20
4425;DHT22;2225;53.568;13.266;2023-07-31T06:55:57;22.20;90.20
4425;DHT22;2225;53.568;13.266;2023-07-31T06:58:24;22.20;90.30
4425;DHT22;2225;53.568;13.266;2023-07-31T07:00:51;22.30;90.00
4425;DHT22;2225;53.568;13.266;2023-07-31T07:03:19;22.30;90.00
4425;DHT22;2225;53.568;13.266;2023-07-31T07:05:46;22.40;90.10
4425;DHT22;2225;53.568;13.266;2023-07-31T07:08:13;22.50;90.10
4425;DHT22;2225;53.568;13.266;2023-07-31T07:10:41;22.60;90.10
4425;DHT22;2225;53.568;13.266;2023-07-31T07:13:08;22.70;89.60
4425;DHT22;2225;53.568;13.266;2023-07-31T07:15:35;22.80;89.10
4425;DHT22;2225;53.568;13.266;2023-07-31T07:18:02;22.80;88.50
4425;DHT22;2225;53.568;13.266;2023-07-31T07:20:30;22.90;88.40
4425;DHT22;2225;53.568;13.266;2023-07-31T07:22:57;23.00;88.30
4425;DHT22;2225;53.568;13.266;2023-07-31T07:25:24;23.00;87.50
4425;DHT22;2225;53.568;13.266;2023-07-31T07:27:51;23.10;87.40
4425;DHT22;2225;53.568;13.266;2023-07-31T07:30:18;23.10;87.30
4425;DHT22;2225;53.568;13.266;2023-07-31T07:32:46;23.10;87.30
4425;DHT22;2225;53.568;13.266;2023-07-31T07:35:14;23.10;87.40
4425;DHT22;2225;53.568;13.266;2023-07-31T07:37:41;23.20;87.20
4425;DHT22;2225;53.568;13.266;2023-07-31T07:40:08;23.20;87.30
4425;DHT22;2225;53.568;13.266;2023-07-31T07:42:35;23.30;86.70
4425;DHT22;2225;53.568;13.266;2023-07-31T07:45:02;23.30;86.90
4425;DHT22;2225;53.568;13.266;2023-07-31T07:47:29;23.30;86.40
4425;DHT22;2225;53.568;13.266;2023-07-31T07:49:56;23.40;85.90
4425;DHT22;2225;53.568;13.266;2023-07-31T07:52:23;23.50;85.50
4425;DHT22;2225;53.568;13.266;2023-07-31T07:54:51;23.60;85.60
4425;DHT22;2225;53.568;13.266;2023-07-31T07:57:17;23.60;84.60
4425;DHT22;2225;53.568;13.266;2023-07-31T07:59:45;23.70;83.90
4425;DHT22;2225;53.568;13.266;2023-07-31T08:02:11;23.60;83.60
4425;DHT22;2225;53.568;13.266;2023-07-31T08:04:38;23.70;84.10
4425;DHT22;2225;53.568;13.266;2023-07-31T08:07:05;23.80;84.30
4425;DHT22;2225;53.568;13.266;2023-07-31T08:09:32;23.90;83.80
4425;DHT22;2225;53.568;13.266;2023-07-31T08:11:59;24.00;83.00
4425;DHT22;2225;53.568;13.266;2023-07-31T08:14:29;24.20;82.60
4425;DHT22;2225;53.568;13.266;2023-07-31T08:16:59;24.30;82.40
4425;DHT22;2225;53.568;13.266;2023-07-31T08:19:26;24.40;82.10
4425;DHT22;2225;53.568;13.266;2023-07-31T08:21:53;24.50;80.50
4425;DHT22;2225;53.568;13.266;2023-07-31T08:24:23;24.40;79.60
4425;DHT22;2225;53.568;13.266;2023-07-31T08:26:50;24.50;79.90
4425;DHT22;2225;53.568;13.266;2023-07-31T08:29:17;24.50;78.70
4425;DHT22;2225;53.568;13.266;2023-07-31T08:31:44;24.50;79.10
4425;DHT22;2225;53.568;13.266;2023-07-31T08:34:11;24.60;78.60
4425;DHT22;2225;53.568;13.266;2023-07-31T08:36:38;24.50;78.50
4425;DHT22;2225;53.568;13.266;2023-07-31T08:39:05;24.60;78.10
4425;DHT22;2225;53.568;13.266;2023-07-31T08:41:40;24.50;77.50
4425;DHT22;2225;53.568;13.266;2023-07-31T08:44:07;24.50;77.60
4425;DHT22;2225;53.568;13.266;2023-07-31T08:46:34;24.50;76.90
4425;DHT22;2225;53.568;13.266;2023-07-31T08:49:04;24.50;77.70
4425;DHT22;2225;53.568;13.266;2023-07-31T08:51:34;24.60;78.20
4425;DHT22;2225;53.568;13.266;2023-07-31T08:54:02;24.50;77.50
4425;DHT22;2225;53.568;13.266;2023-07-31T08:56:32;24.60;77.80
4425;DHT22;2225;53.568;13.266;2023-07-31T08:59:01;24.70;78.10
4425;DHT22;2225;53.568;13.266;2023-07-31T09:01:30;24.70;78.20
4425;DHT22;2225;53.568;13.266;2023-07-31T09:03:59;24.80;78.20
4425;DHT22;2225;53.568;13.266;2023-07-31T09:06:28;24.80;77.00
4425;DHT22;2225;53.568;13.266;2023-07-31T09:08:56;24.80;76.80
4425;DHT22;2225;53.568;13.266;2023-07-31T09:11:24;24.90;76.90
4425;DHT22;2225;53.568;13.266;2023-07-31T09:13:52;24.90;76.70
4425;DHT22;2225;53.568;13.266;2023-07-31T09:16:27;25.00;76.60
4425;DHT22;2225;53.568;13.266;2023-07-31T09:18:57;25.00;77.50
4425;DHT22;2225;53.568;13.266;2023-07-31T09:21:25;25.10;76.60
4425;DHT22;2225;53.568;13.266;2023-07-31T09:23:54;25.20;77.00
4425;DHT22;2225;53.568;13.266;2023-07-31T09:26:36;25.20;76.20
4425;DHT22;2225;53.568;13.266;2023-07-31T09:29:06;25.20;75.80
4425;DHT22;2225;53.568;13.266;2023-07-31T09:31:42;25.20;76.20
4425;DHT22;2225;53.568;13.266;2023-07-31T09:34:09;25.30;77.00
4425;DHT22;2225;53.568;13.266;2023-07-31T09:36:48;25.30;75.60
4425;DHT22;2225;53.568;13.266;2023-07-31T09:39:17;25.30;74.60
4425;DHT22;2225;53.568;13.266;2023-07-31T09:41:48;25.30;74.80
4425;DHT22;2225;53.568;13.266;2023-07-31T09:44:20;25.30;74.80
4425;DHT22;2225;53.568;13.266;2023-07-31T09:46:47;25.40;74.70
4425;DHT22;2225;53.568;13.266;2023-07-31T09:49:15;25.30;73.40
4425;DHT22;2225;53.568;13.266;2023-07-31T09:51:42;25.40;74.60
4425;DHT22;2225;53.568;13.266;2023-07-31T09:54:14;25.40;73.70
4425;DHT22;2225;53.568;13.266;2023-07-31T09:56:46;25.40;74.40
4425;DHT22;2225;53.568;13.266;2023-07-31T09:59:16;25.50;74.70
4425;DHT22;2225;53.568;13.266;2023-07-31T10:01:50;25.60;73.60
4425;DHT22;2225;53.568;13.266;2023-07-31T10:04:18;25.60;74.10
4425;DHT22;2225;53.568;13.266;2023-07-31T10:06:50;25.70;72.90
4425;DHT22;2225;53.568;13.266;2023-07-31T10:09:18;25.80;72.50
4425;DHT22;2225;53.568;13.266;2023-07-31T10:11:55;25.80;72.30
4425;DHT22;2225;53.568;13.266;2023-07-31T10:14:24;25.80;72.50
4425;DHT22;2225;53.568;13.266;2023-07-31T10:16:51;25.90;72.80
4425;DHT22;2225;53.568;13.266;2023-07-31T10:19:20;25.90;72.90
4425;DHT22;2225;53.568;13.266;2023-07-31T10:21:49;26.00;72.30
4425;DHT22;2225;53.568;13.266;2023-07-31T10:24:16;26.00;72.60
4425;DHT22;2225;53.568;13.266;2023-07-31T10:26:45;26.00;72.00
4425;DHT22;2225;53.568;13.266;2023-07-31T10:29:15;26.00;72.60
4425;DHT22;2225;53.568;13.266;2023-07-31T10:31:42;25.90;73.30
4425;DHT22;2225;53.568;13.266;2023-07-31T10:34:10;25.80;72.90
4425;DHT22;2225;53.568;13.266;2023-07-31T10:36:37;25.70;72.90
4425;DHT22;2225;53.568;13.266;2023-07-31T10:39:04;25.60;73.70
4425;DHT22;2225;53.568;13.266;2023-07-31T10:42:12;25.60;74.40
4425;DHT22;2225;53.568;13.266;2023-07-31T10:44:44;25.60;73.70
4425;DHT22;2225;53.568;13.266;2023-07-31T10:47:15;25.50;73.50
4425;DHT22;2225;53.568;13.266;2023-07-31T10:49:45;25.50;74.10
4425;DHT22;2225;53.568;13.266;2023-07-31T10:52:13;25.50;74.50
4425;DHT22;2225;53.568;13.266;2023-07-31T10:54:40;25.40;74.70
4425;DHT22;2225;53.568;13.266;2023-07-31T10:57:22;25.30;73.80
4425;DHT22;2225;53.568;13.266;2023-07-31T10:59:49;25.30;73.80
4425;DHT22;2225;53.568;13.266;2023-07-31T11:02:26;25.30;74.20
4425;DHT22;2225;53.568;13.266;2023-07-31T11:05:08;25.30;74.70
4425;DHT22;2225;53.568;13.266;2023-07-31T11:07:49;25.30;74.40
4425;DHT22;2225;53.568;13.266;2023-07-31T11:10:17;25.30;74.00
4425;DHT22;2225;53.568;13.266;2023-07-31T11:12:47;25.20;74.50
4425;DHT22;2225;53.568;13.266;2023-07-31T11:15:15;25.20;74.40
4425;DHT22;2225;53.568;13.266;2023-07-31T11:17:41;25.20;74.40
4425;DHT22;2225;53.568;13.266;2023-07-31T11:20:09;25.20;74.80
4425;DHT22;2225;53.568;13.266;2023-07-31T11:22:36;25.30;75.30
4425;DHT22;2225;53.568;13.266;2023-07-31T11:25:03;25.40;75.20
4425;DHT22;2225;53.568;13.266;2023-07-31T11:27:31;25.50;74.50
4425;DHT22;2225;53.568;13.266;2023-07-31T11:30:01;25.60;74.60
4425;DHT22;2225;53.568;13.266;2023-07-31T11:32:29;25.70;74.70
4425;DHT22;2225;53.568;13.266;2023-07-31T11:34:56;25.80;74.70
4425;DHT22;2225;53.568;13.266;2023-07-31T11:37:41;25.90;74.20
4425;DHT22;2225;53.568;13.266;2023-07-31T11:40:09;26.00;74.80
4425;DHT22;2225;53.568;13.266;2023-07-31T11:42:37;26.10;74.70
4425;DHT22;2225;53.568;13.266;2023-07-31T11:45:05;26.20;74.70
4425;DHT22;2225;53.568;13.266;2023-07-31T11:47:34;26.30;74.50
4425;DHT22;2225;53.568;13.266;2023-07-31T11:50:06;26.20;73.90
4425;DHT22;2225;53.568;13.266;2023-07-31T11:52:37;26.10;74.70
4425;DHT22;2225;53.568;13.266;2023-07-31T11:55:09;26.00;75.60
4425;DHT22;2225;53.568;13.266;2023-07-31T11:57:40;25.90;76.20
4425;DHT22;2225;53.568;13.266;2023-07-31T12:00:09;25.80;76.90
4425;DHT22;2225;53.568;13.266;2023-07-31T12:02:38;25.70;77.80
4425;DHT22;2225;53.568;13.266;2023-07-31T12:05:15;25.60;78.20
4425;DHT22;2225;53.568;13.266;2023-07-31T12:07:47;25.50;81.30
4425;DHT22;2225;53.568;13.266;2023-07-31T12:10:29;25.40;82.50
4425;DHT22;2225;53.568;13.266;2023-07-31T12:13:05;25.30;84.00
4425;DHT22;2225;53.568;13.266;2023-07-31T12:15:41;25.20;84.20
4425;DHT22;2225;53.568;13.266;2023-07-31T12:18:13;25.20;84.80
4425;DHT22;2225;53.568;13.266;2023-07-31T12:20:46;25.00;85.70
4425;DHT22;2225;53.568;13.266;2023-07-31T12:26:12;24.60;87.80
4425;DHT22;2225;53.568;13.266;2023-07-31T12:28:47;24.50;89.20
4425;DHT22;2225;53.568;13.266;2023-07-31T12:31:17;24.30;90.00
4425;DHT22;2225;53.568;13.266;2023-07-31T12:33:46;24.20;90.20
4425;DHT22;2225;53.568;13.266;2023-07-31T12:36:16;24.10;90.60
4425;DHT22;2225;53.568;13.266;2023-07-31T12:38:45;23.90;91.10
4425;DHT22;2225;53.568;13.266;2023-07-31T12:41:12;23.90;91.40
4425;DHT22;2225;53.568;13.266;2023-07-31T12:43:42;23.90;91.30
4425;DHT22;2225;53.568;13.266;2023-07-31T12:46:09;23.90;91.30
4425;DHT22;2225;53.568;13.266;2023-07-31T12:48:40;23.90;90.90
4425;DHT22;2225;53.568;13.266;2023-07-31T12:51:07;23.90;91.00
4425;DHT22;2225;53.568;13.266;2023-07-31T12:53:35;24.10;91.10
4425;DHT22;2225;53.568;13.266;2023-07-31T12:56:02;24.20;91.00
4425;DHT22;2225;53.568;13.266;2023-07-31T12:58:29;24.30;90.30
4425;DHT22;2225;53.568;13.266;2023-07-31T13:00:56;24.40;90.00
4425;DHT22;2225;53.568;13.266;2023-07-31T13:03:23;24.50;89.60
4425;DHT22;2225;53.568;13.266;2023-07-31T13:05:50;24.60;88.60
4425;DHT22;2225;53.568;13.266;2023-07-31T13:08:19;24.60;87.60
4425;DHT22;2225;53.568;13.266;2023-07-31T13:10:46;24.70;87.60
4425;DHT22;2225;53.568;13.266;2023-07-31T13:13:13;24.80;87.20
4425;DHT22;2225;53.568;13.266;2023-07-31T13:15:40;24.80;86.60
4425;DHT22;2225;53.568;13.266;2023-07-31T13:18:07;24.90;86.60
4425;DHT22;2225;53.568;13.266;2023-07-31T13:20:34;25.00;85.90
4425;DHT22;2225;53.568;13.266;2023-07-31T13:23:01;25.10;85.20
4425;DHT22;2225;53.568;13.266;2023-07-31T13:25:27;25.10;84.40
4425;DHT22;2225;53.568;13.266;2023-07-31T13:27:55;25.20;84.40
4425;DHT22;2225;53.568;13.266;2023-07-31T13:30:23;25.20;84.20
4425;DHT22;2225;53.568;13.266;2023-07-31T13:32:50;25.30;84.80
4425;DHT22;2225;53.568;13.266;2023-07-31T13:35:17;25.40;84.60
4425;DHT22;2225;53.568;13.266;2023-07-31T13:37:44;25.50;84.60
4425;DHT22;2225;53.568;13.266;2023-07-31T13:40:11;25.60;83.60
4425;DHT22;2225;53.568;13.266;2023-07-31T13:42:38;25.70;83.10
4425;DHT22;2225;53.568;13.266;2023-07-31T13:45:05;25.80;82.50
4425;DHT22;2225;53.568;13.266;2023-07-31T13:47:33;25.70;82.20
4425;DHT22;2225;53.568;13.266;2023-07-31T13:50:01;25.70;81.80
4425;DHT22;2225;53.568;13.266;2023-07-31T13:52:28;25.60;82.90
4425;DHT22;2225;53.568;13.266;2023-07-31T13:54:55;25.60;83.50
4425;DHT22;2225;53.568;13.266;2023-07-31T13:57:22;25.50;83.60
4425;DHT22;2225;53.568;13.266;2023-07-31T13:59:50;25.40;83.50
4425;DHT22;2225;53.568;13.266;2023-07-31T14:02:17;25.40;83.70
4425;DHT22;2225;53.568;13.266;2023-07-31T14:04:44;25.30;85.00
4425;DHT22;2225;53.568;13.266;2023-07-31T14:07:11;25.10;87.20
4425;DHT22;2225;53.568;13.266;2023-07-31T14:09:38;24.90;88.70
4425;DHT22;2225;53.568;13.266;2023-07-31T14:12:05;24.80;90.20
4425;DHT22;2225;53.568;13.266;2023-07-31T14:14:32;24.60;90.90
4425;DHT22;2225;53.568;13.266;2023-07-31T14:17:01;24.50;92.00
4425;DHT22;2225;53.568;13.266;2023-07-31T14:19:28;24.30;91.90
4425;DHT22;2225;53.568;13.266;2023-07-31T14:21:58;24.30;92.50
4425;DHT22;2225;53.568;13.266;2023-07-31T14:24:37;24.30;92.40
4425;DHT22;2225;53.568;13.266;2023-07-31T14:27:05;24.30;92.30
4425;DHT22;2225;53.568;13.266;2023-07-31T14:29:32;24.30;92.40
4425;DHT22;2225;53.568;13.266;2023-07-31T14:31:59;24.30;92.10
4425;DHT22;2225;53.568;13.266;2023-07-31T14:34:27;24.30;92.20
4425;DHT22;2225;53.568;13.266;2023-07-31T14:36:53;24.30;92.30
4425;DHT22;2225;53.568;13.266;2023-07-31T14:39:20;24.30;92.10
4425;DHT22;2225;53.568;13.266;2023-07-31T14:41:47;24.30;92.10
4425;DHT22;2225;53.568;13.266;2023-07-31T14:44:15;24.30;91.50
4425;DHT22;2225;53.568;13.266;2023-07-31T14:46:42;24.30;91.40
4425;DHT22;2225;53.568;13.266;2023-07-31T14:49:09;24.30;91.70
4425;DHT22;2225;53.568;13.266;2023-07-31T14:51:36;24.20;91.20
4425;DHT22;2225;53.568;13.266;2023-07-31T14:54:03;24.20;91.50
4425;DHT22;2225;53.568;13.266;2023-07-31T14:56:30;24.30;91.60
4425;DHT22;2225;53.568;13.266;2023-07-31T14:58:57;24.20;91.20
4425;DHT22;2225;53.568;13.266;2023-07-31T15:01:24;24.20;91.30
4425;DHT22;2225;53.568;13.266;2023-07-31T15:03:51;24.20;91.60
4425;DHT22;2225;53.568;13.266;2023-07-31T15:06:18;24.20;91.30
4425;DHT22;2225;53.568;13.266;2023-07-31T15:08:45;24.20;91.00
4425;DHT22;2225;53.568;13.266;2023-07-31T15:11:12;24.20;91.20
4425;DHT22;2225;53.568;13.266;2023-07-31T15:13:39;24.10;91.10
4425;DHT22;2225;53.568;13.266;2023-07-31T15:16:06;24.10;91.10
4425;DHT22;2225;53.568;13.266;2023-07-31T15:18:33;24.10;91.10
4425;DHT22;2225;53.568;13.266;2023-07-31T15:21:00;24.10;91.20
4425;DHT22;2225;53.568;13.266;2023-07-31T15:23:27;24.20;91.40
4425;DHT22;2225;53.568;13.266;2023-07-31T15:25:54;24.20;91.80
4425;DHT22;2225;53.568;13.266;2023-07-31T15:28:21;24.20;91.50
4425;DHT22;2225;53.568;13.266;2023-07-31T15:30:48;24.20;91.60
4425;DHT22;2225;53.568;13.266;2023-07-31T15:33:15;24.20;91.80
4425;DHT22;2225;53.568;13.266;2023-07-31T15:35:42;24.10;91.90
4425;DHT22;2225;53.568;13.266;2023-07-31T15:38:10;24.10;92.20
4425;DHT22;2225;53.568;13.266;2023-07-31T15:40:38;24.10;92.50
4425;DHT22;2225;53.568;13.266;2023-07-31T15:43:05;24.10;92.80
4425;DHT22;2225;53.568;13.266;2023-07-31T15:45:32;24.10;92.90
4425;DHT22;2225;53.568;13.266;2023-07-31T15:47:59;24.10;92.90
4425;DHT22;2225;53.568;13.266;2023-07-31T15:50:26;24.10;92.90
4425;DHT22;2225;53.568;13.266;2023-07-31T15:52:53;24.00;93.10
4425;DHT22;2225;53.568;13.266;2023-07-31T15:55:20;24.10;93.20
4425;DHT22;2225;53.568;13.266;2023-07-31T15:57:48;24.10;93.10